Station Historical Data
Daily Summary for November 11, 2017 Units:  English    Metric   Both
« Previous Day
Next Day »
Daily Weekly Monthly Yearly Custom
  High: Low: Average:
Temperature: 53.7 °F 40.5 °F 46.6 °F
Dew Point: 40.5 °F 34.3 °F 37.4 °F
Humidity: 90% 59% 70%
Wind Speed: 6.9mph 0.0mph 1.7mph
Wind Gust: 6.9mph - -
Wind- - West
Pressure: 30.42 in 30.27 in -
Precipitation: 0.00 in    
Historical Graphs
 
 
Tabular Data for November 11, 2017
Time Temperature Dew Point Pressure Wind Wind Speed Wind Gust Humidity Rainfall Rate (Hourly) solar Conditions
00:00 40.6 °F 37.6 °F 30.27 in Calm     89% 0.00 in WeatherDisplay:10.37 W/m2 CLR
00:05 40.6 °F 37.6 °F 30.28 in Calm     89% 0.00 in WeatherDisplay:10.37 W/m2 CLR
00:11 40.5 °F 37.5 °F 30.28 in Calm     89% 0.00 in WeatherDisplay:10.37 W/m2 CLR
00:16 40.6 °F 37.9 °F 30.28 in Calm     90% 0.00 in WeatherDisplay:10.37 W/m2 CLR
00:21 40.8 °F 38.1 °F 30.28 in Calm     90% 0.00 in WeatherDisplay:10.37 W/m2 CLR
00:26 40.9 °F 38.2 °F 30.28 in Calm     90% 0.00 in WeatherDisplay:10.37 W/m2 CLR
00:31 41.0 °F 38.3 °F 30.28 in Calm     90% 0.00 in WeatherDisplay:10.37 W/m2 CLR
00:36 41.2 °F 38.5 °F 30.28 in Calm     90% 0.00 in WeatherDisplay:10.37 W/m2 CLR
00:41 41.4 °F 38.7 °F 30.28 in Calm     90% 0.00 in WeatherDisplay:10.37 W/m2 CLR
00:46 41.4 °F 38.7 °F 30.28 in Calm     90% 0.00 in WeatherDisplay:10.37 W/m2 CLR
00:51 41.5 °F 38.8 °F 30.28 in Calm     90% 0.00 in WeatherDisplay:10.37 W/m2 CLR
00:56 41.6 °F 38.9 °F 30.28 in Calm     90% 0.00 in WeatherDisplay:10.37 W/m2 CLR
01:01 41.6 °F 38.6 °F 30.28 in Calm     89% 0.00 in WeatherDisplay:10.37 W/m2 CLR
01:06 41.9 °F 39.2 °F 30.28 in Calm     90% 0.00 in WeatherDisplay:10.37 W/m2 CLR
01:11 42.1 °F 39.4 °F 30.28 in Calm     90% 0.00 in WeatherDisplay:10.37 W/m2 CLR
01:16 42.8 °F 39.8 °F 30.28 in WNW 1.2 mph 1.2 mph 89% 0.00 in WeatherDisplay:10.37 W/m2 CLR
01:21 43.5 °F 39.9 °F 30.28 in West 1.2 mph   87% 0.00 in WeatherDisplay:10.37 W/m2 CLR
01:26 44.0 °F 40.1 °F 30.28 in West 1.2 mph   86% 0.00 in WeatherDisplay:10.37 W/m2 CLR
01:31 44.2 °F 40.0 °F 30.28 in Calm     85% 0.00 in WeatherDisplay:10.37 W/m2 CLR
01:36 44.3 °F 40.1 °F 30.28 in West 1.2 mph 1.2 mph 85% 0.00 in WeatherDisplay:10.37 W/m2 CLR
01:42 44.4 °F 39.9 °F 30.28 in Calm   0.2 mph 84% 0.00 in WeatherDisplay:10.37 W/m2 CLR
01:47 44.7 °F 40.2 °F 30.28 in WNW 1.2 mph 1.2 mph 84% 0.00 in WeatherDisplay:10.37 W/m2 CLR
01:52 45.0 °F 40.1 °F 30.28 in West 3.5 mph 3.5 mph 83% 0.00 in WeatherDisplay:10.37 W/m2 CLR
01:57 45.1 °F 40.2 °F 30.28 in West 1.2 mph 1.2 mph 83% 0.00 in WeatherDisplay:10.37 W/m2 CLR
02:02 45.2 °F 40.0 °F 30.29 in West 1.2 mph   82% 0.00 in WeatherDisplay:10.37 W/m2 CLR
02:07 45.3 °F 40.1 °F 30.29 in West 2.0 mph 2.0 mph 82% 0.00 in WeatherDisplay:10.37 W/m2 CLR
02:12 45.6 °F 40.1 °F 30.29 in West 2.3 mph 2.3 mph 81% 0.00 in WeatherDisplay:10.37 W/m2 CLR
02:17 45.7 °F 39.9 °F 30.29 in Calm     80% 0.00 in WeatherDisplay:10.37 W/m2 CLR
02:22 45.9 °F 40.1 °F 30.29 in West 2.3 mph 2.3 mph 80% 0.00 in WeatherDisplay:10.37 W/m2 CLR
02:27 46.0 °F 39.9 °F 30.29 in West 2.3 mph 2.3 mph 79% 0.00 in WeatherDisplay:10.37 W/m2 CLR
02:32 46.1 °F 40.3 °F 30.29 in West 1.2 mph 1.2 mph 80% 0.00 in WeatherDisplay:10.37 W/m2 CLR
02:37 46.1 °F 40.3 °F 30.29 in West 1.2 mph 1.2 mph 80% 0.00 in WeatherDisplay:10.37 W/m2 CLR
02:42 46.2 °F 40.0 °F 30.29 in West 1.2 mph 1.2 mph 79% 0.00 in WeatherDisplay:10.37 W/m2 CLR
02:47 46.2 °F 40.0 °F 30.29 in WNW 3.5 mph 3.5 mph 79% 0.00 in WeatherDisplay:10.37 W/m2 CLR
02:52 46.2 °F 40.0 °F 30.29 in SW 5.1 mph 5.1 mph 79% 0.00 in WeatherDisplay:10.37 W/m2 CLR
02:57 46.3 °F 39.8 °F 30.29 in WNW 1.2 mph 1.2 mph 78% 0.00 in WeatherDisplay:10.37 W/m2 CLR
03:02 46.2 °F 39.4 °F 30.31 in West 4.6 mph 4.6 mph 77% 0.00 in WeatherDisplay:10.37 W/m2 CLR
03:07 46.1 °F 39.3 °F 30.31 in WNW 1.2 mph 1.2 mph 77% 0.00 in WeatherDisplay:10.37 W/m2 CLR
03:12 46.0 °F 38.9 °F 30.31 in West 1.2 mph 1.2 mph 76% 0.00 in WeatherDisplay:10.37 W/m2 CLR
03:17 46.0 °F 38.9 °F 30.31 in WSW 2.3 mph 2.3 mph 76% 0.00 in WeatherDisplay:10.37 W/m2 CLR
03:22 45.9 °F 38.4 °F 30.31 in WNW 3.5 mph 3.5 mph 75% 0.00 in WeatherDisplay:10.37 W/m2 CLR
03:27 45.9 °F 38.4 °F 30.31 in West 1.2 mph 1.2 mph 75% 0.00 in WeatherDisplay:10.37 W/m2 CLR
03:32 45.7 °F 38.6 °F 30.31 in West 2.3 mph 2.3 mph 76% 0.00 in WeatherDisplay:10.37 W/m2 CLR
03:37 45.7 °F 38.2 °F 30.31 in WSW 2.0 mph 2.0 mph 75% 0.00 in WeatherDisplay:10.37 W/m2 CLR
03:43 45.7 °F 37.9 °F 30.31 in NW 3.5 mph 3.5 mph 74% 0.00 in WeatherDisplay:10.37 W/m2 CLR
03:47 45.6 °F 37.8 °F 30.31 in WNW 3.5 mph   74% 0.00 in WeatherDisplay:10.37 W/m2 CLR
03:53 45.4 °F 37.2 °F 30.31 in WNW 4.6 mph 4.6 mph 73% 0.00 in WeatherDisplay:10.37 W/m2 CLR
03:58 45.4 °F 37.2 °F 30.31 in West 1.2 mph 1.2 mph 73% 0.00 in WeatherDisplay:10.37 W/m2 CLR
04:03 45.2 °F 37.1 °F 30.33 in WSW 3.5 mph 3.5 mph 73% 0.00 in WeatherDisplay:10.37 W/m2 CLR
04:05 45.1 °F 37.0 °F 30.33 in WNW 1.2 mph 1.2 mph 73% 0.00 in WeatherDisplay:10.37 W/m2 CLR
04:10 45.0 °F 36.9 °F 30.33 in West 3.5 mph 3.5 mph 73% 0.00 in WeatherDisplay:10.37 W/m2 CLR
04:16 45.0 °F 36.9 °F 30.33 in West 3.5 mph 3.5 mph 73% 0.00 in WeatherDisplay:10.37 W/m2 CLR
04:21 44.8 °F 36.7 °F 30.33 in WNW 1.0 mph 1.0 mph 73% 0.00 in WeatherDisplay:10.37 W/m2 CLR
04:26 44.7 °F 36.6 °F 30.33 in WSW 2.3 mph 2.3 mph 73% 0.00 in WeatherDisplay:10.37 W/m2 CLR
04:31 44.6 °F 36.5 °F 30.33 in WNW 1.2 mph 1.2 mph 73% 0.00 in WeatherDisplay:10.37 W/m2 CLR
04:36 44.6 °F 36.1 °F 30.33 in NW 1.2 mph 1.2 mph 72% 0.00 in WeatherDisplay:10.37 W/m2 CLR
04:40 44.5 °F 36.4 °F 30.33 in WNW 1.2 mph 1.2 mph 73% 0.00 in WeatherDisplay:10.37 W/m2 CLR
04:45 44.3 °F 36.2 °F 30.33 in WNW 4.6 mph 4.6 mph 73% 0.00 in WeatherDisplay:10.37 W/m2 CLR
04:50 44.3 °F 36.5 °F 30.33 in West 3.5 mph 3.5 mph 74% 0.00 in WeatherDisplay:10.37 W/m2 CLR
04:55 44.1 °F 36.3 °F 30.33 in West 1.2 mph 1.2 mph 74% 0.00 in WeatherDisplay:10.37 W/m2 CLR
05:00 44.0 °F 36.2 °F 30.33 in WNW 5.1 mph 5.1 mph 74% 0.00 in WeatherDisplay:10.37 W/m2 CLR
05:06 43.9 °F 36.1 °F 30.35 in NW 2.3 mph   74% 0.00 in WeatherDisplay:10.37 W/m2 CLR
05:11 43.8 °F 36.0 °F 30.35 in West 3.1 mph 3.1 mph 74% 0.00 in WeatherDisplay:10.37 W/m2 CLR
05:16 43.7 °F 36.0 °F 30.35 in West 1.2 mph 1.2 mph 74% 0.00 in WeatherDisplay:10.37 W/m2 CLR
05:21 43.5 °F 35.4 °F 30.35 in SW 4.6 mph 4.6 mph 73% 0.00 in WeatherDisplay:10.37 W/m2 CLR
05:26 43.4 °F 35.7 °F 30.35 in WNW 1.2 mph 1.2 mph 74% 0.00 in WeatherDisplay:10.37 W/m2 CLR
05:31 43.3 °F 35.6 °F 30.35 in West 2.3 mph 2.3 mph 74% 0.00 in WeatherDisplay:10.37 W/m2 CLR
05:36 43.1 °F 35.4 °F 30.35 in West 4.6 mph 4.6 mph 74% 0.00 in WeatherDisplay:10.37 W/m2 CLR
05:41 43.1 °F 35.4 °F 30.35 in WNW 3.5 mph 3.5 mph 74% 0.00 in WeatherDisplay:10.37 W/m2 CLR
05:46 42.9 °F 35.2 °F 30.35 in WNW 1.2 mph 1.2 mph 74% 0.00 in WeatherDisplay:10.37 W/m2 CLR
05:51 42.8 °F 35.1 °F 30.35 in WSW 1.2 mph 1.2 mph 74% 0.00 in WeatherDisplay:10.37 W/m2 CLR
05:56 42.7 °F 35.3 °F 30.35 in West 1.2 mph   75% 0.00 in WeatherDisplay:10.37 W/m2 CLR
06:01 42.5 °F 35.1 °F 30.36 in WNW 1.2 mph 1.2 mph 75% 0.00 in WeatherDisplay:10.37 W/m2 CLR
06:06 42.4 °F 35.0 °F 30.36 in West 1.2 mph   75% 0.00 in WeatherDisplay:10.37 W/m2 CLR
06:11 42.4 °F 35.0 °F 30.36 in NW 3.5 mph 3.5 mph 75% 0.00 in WeatherDisplay:10.37 W/m2 CLR
06:16 42.2 °F 35.2 °F 30.36 in WNW 1.2 mph 1.2 mph 76% 0.00 in WeatherDisplay:10.37 W/m2 CLR
06:21 42.1 °F 35.1 °F 30.36 in West 3.5 mph 3.5 mph 76% 0.00 in WeatherDisplay:10.37 W/m2 CLR
06:26 42.0 °F 35.0 °F 30.36 in WNW 1.2 mph 1.2 mph 76% 0.00 in WeatherDisplay:10.37 W/m2 CLR
06:31 41.9 °F 34.9 °F 30.36 in West 2.3 mph 2.3 mph 76% 0.00 in WeatherDisplay:10.37 W/m2 CLR
06:36 41.8 °F 35.1 °F 30.36 in WNW 1.2 mph 2.6 mph 77% 0.00 in WeatherDisplay:10.37 W/m2 CLR
06:41 41.7 °F 34.7 °F 30.36 in WNW 3.5 mph 3.5 mph 76% 0.00 in WeatherDisplay:10.37 W/m2 CLR
06:46 41.6 °F 34.9 °F 30.36 in West 1.2 mph 1.2 mph 77% 0.00 in WeatherDisplay:10.37 W/m2 CLR
06:52 41.5 °F 34.8 °F 30.36 in West 1.2 mph 1.2 mph 77% 0.00 in WeatherDisplay:10.37 W/m2 CLR
06:57 41.4 °F 34.7 °F 30.36 in WNW 1.2 mph 1.2 mph 77% 0.00 in WeatherDisplay:10.37 W/m2 CLR
07:02 41.3 °F 34.6 °F 30.38 in WNW 1.2 mph   77% 0.00 in WeatherDisplay:10.37 W/m2 BKN
07:07 41.2 °F 34.9 °F 30.38 in WNW 1.0 mph 1.0 mph 78% 0.00 in WeatherDisplay:10.37 W/m2 BKN
07:12 41.1 °F 34.8 °F 30.38 in West 1.2 mph 1.2 mph 78% 0.00 in WeatherDisplay:10.37 W/m2 BKN
07:17 41.0 °F 34.7 °F 30.38 in WNW 5.1 mph 5.1 mph 78% 0.00 in WeatherDisplay:10.37 W/m2 BKN
07:22 41.1 °F 34.8 °F 30.38 in WSW 2.3 mph 2.3 mph 78% 0.00 in WeatherDisplay:10.37 W/m2 BKN
07:27 41.0 °F 34.7 °F 30.38 in Calm     78% 0.00 in WeatherDisplay:10.37 W/m2 BKN
07:32 40.9 °F 34.6 °F 30.38 in Calm     78% 0.00 in WeatherDisplay:10.37 W/m2 BKN
07:37 41.0 °F 34.3 °F 30.38 in WNW 2.3 mph 2.3 mph 77% 0.00 in WeatherDisplay:10.37 W/m2 BKN
07:42 41.0 °F 34.3 °F 30.38 in WNW 1.2 mph 1.2 mph 77% 0.00 in WeatherDisplay:10.37 W/m2 BKN
07:47 41.0 °F 34.3 °F 30.38 in WNW 2.3 mph   77% 0.00 in WeatherDisplay:10.37 W/m2 BKN
07:52 41.1 °F 34.4 °F 30.38 in WNW 1.2 mph 1.2 mph 77% 0.00 in WeatherDisplay:10.37 W/m2 BKN
07:57 41.2 °F 34.5 °F 30.38 in West 1.2 mph 1.2 mph 77% 0.00 in WeatherDisplay:10.37 W/m2 BKN
08:02 41.3 °F 34.3 °F 30.39 in WNW 3.5 mph 3.5 mph 76% 0.00 in WeatherDisplay:10.37 W/m2 BKN
08:07 41.4 °F 34.7 °F 30.39 in WNW 1.2 mph 1.2 mph 77% 0.00 in WeatherDisplay:10.37 W/m2 BKN
08:12 41.5 °F 34.5 °F 30.39 in West 2.3 mph 2.3 mph 76% 0.00 in WeatherDisplay:10.37 W/m2 BKN
08:17 41.6 °F 34.6 °F 30.39 in West 2.3 mph 2.3 mph 76% 0.00 in WeatherDisplay:10.37 W/m2 BKN
08:22 41.8 °F 34.5 °F 30.39 in WNW 2.3 mph 2.3 mph 75% 0.00 in WeatherDisplay:10.37 W/m2 BKN
08:27 42.0 °F 34.6 °F 30.39 in WNW 5.8 mph   75% 0.00 in WeatherDisplay:10.37 W/m2 BKN
08:32 42.0 °F 34.6 °F 30.39 in West 2.3 mph 2.3 mph 75% 0.00 in WeatherDisplay:10.37 W/m2 BKN
08:37 42.1 °F 34.4 °F 30.39 in WNW 3.5 mph 3.5 mph 74% 0.00 in WeatherDisplay:10.37 W/m2 BKN
08:42 42.3 °F 34.6 °F 30.39 in NE 2.0 mph 2.0 mph 74% 0.00 in WeatherDisplay:10.37 W/m2 BKN
08:48 42.6 °F 34.9 °F 30.39 in West 1.2 mph 1.2 mph 74% 0.00 in WeatherDisplay:10.37 W/m2 BKN
08:53 42.8 °F 34.7 °F 30.39 in West 4.1 mph 4.1 mph 73% 0.00 in WeatherDisplay:10.37 W/m2 BKN
08:58 42.9 °F 34.8 °F 30.39 in WNW 1.2 mph 1.2 mph 73% 0.00 in WeatherDisplay:10.37 W/m2 BKN
09:03 43.3 °F 34.9 °F 30.42 in SSW 3.5 mph 3.5 mph 72% 0.00 in WeatherDisplay:10.37 W/m2 BKN
09:08 43.3 °F 34.5 °F 30.42 in West 6.9 mph 6.9 mph 71% 0.00 in WeatherDisplay:10.37 W/m2 BKN
09:13 43.5 °F 35.1 °F 30.42 in South 2.3 mph 2.3 mph 72% 0.00 in WeatherDisplay:10.37 W/m2 BKN
09:18 43.6 °F 35.2 °F 30.42 in SSE 3.5 mph 3.5 mph 72% 0.00 in WeatherDisplay:10.37 W/m2 BKN
09:23 44.0 °F 35.6 °F 30.42 in WNW 2.3 mph 2.3 mph 72% 0.00 in WeatherDisplay:10.37 W/m2 BKN
09:28 44.0 °F 35.2 °F 30.42 in WNW 2.3 mph 2.3 mph 71% 0.00 in WeatherDisplay:10.37 W/m2 BKN
09:33 44.2 °F 35.4 °F 30.42 in West 1.2 mph 1.2 mph 71% 0.00 in WeatherDisplay:10.37 W/m2 BKN
09:38 44.2 °F 35.4 °F 30.42 in WNW 1.2 mph 1.2 mph 71% 0.00 in WeatherDisplay:10.37 W/m2 BKN
09:43 44.9 °F 35.7 °F 30.42 in WSW 2.3 mph 2.3 mph 70% 0.00 in WeatherDisplay:10.37 W/m2 BKN
09:48 45.3 °F 35.7 °F 30.42 in WNW 4.6 mph 4.6 mph 69% 0.00 in WeatherDisplay:10.37 W/m2 BKN
09:53 45.4 °F 35.5 °F 30.42 in WNW 3.5 mph 3.5 mph 68% 0.00 in WeatherDisplay:10.37 W/m2 BKN
09:58 45.8 °F 35.8 °F 30.42 in West 4.6 mph 4.6 mph 68% 0.00 in WeatherDisplay:10.37 W/m2 BKN
10:03 46.3 °F 35.9 °F 30.42 in West 4.6 mph 4.6 mph 67% 0.00 in WeatherDisplay:10.37 W/m2 BKN
10:08 46.0 °F 36.0 °F 30.42 in SSE 2.0 mph 2.0 mph 68% 0.00 in WeatherDisplay:10.37 W/m2 BKN
10:14 45.8 °F 35.5 °F 30.42 in NW 4.6 mph 4.6 mph 67% 0.00 in WeatherDisplay:10.37 W/m2 BKN
10:19 45.8 °F 35.5 °F 30.42 in WNW 4.6 mph 4.6 mph 67% 0.00 in WeatherDisplay:10.37 W/m2 BKN
10:24 46.6 °F 36.6 °F 30.42 in NW 2.3 mph 2.3 mph 68% 0.00 in WeatherDisplay:10.37 W/m2 BKN
10:29 47.2 °F 36.8 °F 30.42 in West 1.2 mph   67% 0.00 in WeatherDisplay:10.37 W/m2 BKN
10:34 47.6 °F 36.8 °F 30.42 in South 4.6 mph 4.6 mph 66% 0.00 in WeatherDisplay:10.37 W/m2 BKN
10:39 47.8 °F 36.6 °F 30.42 in West 3.5 mph 3.5 mph 65% 0.00 in WeatherDisplay:10.37 W/m2 BKN
10:44 47.5 °F 36.3 °F 30.42 in SE 2.3 mph 2.3 mph 65% 0.00 in WeatherDisplay:10.37 W/m2 BKN
10:49 47.6 °F 36.8 °F 30.42 in North 1.2 mph 1.2 mph 66% 0.00 in WeatherDisplay:10.37 W/m2 BKN
10:54 48.1 °F 38.0 °F 30.42 in WNW 1.2 mph 1.2 mph 68% 0.00 in WeatherDisplay:10.37 W/m2 BKN
10:59 48.5 °F 37.3 °F 30.42 in WNW 1.2 mph 1.2 mph 65% 0.00 in WeatherDisplay:10.37 W/m2 BKN
11:04 48.3 °F 37.1 °F 30.40 in NW 2.3 mph 2.3 mph 65% 0.00 in WeatherDisplay:10.37 W/m2 BKN
11:09 48.6 °F 37.7 °F 30.40 in East 1.2 mph 1.2 mph 66% 0.00 in WeatherDisplay:10.37 W/m2 BKN
11:14 49.1 °F 38.2 °F 30.40 in SE 2.3 mph 2.3 mph 66% 0.00 in WeatherDisplay:10.37 W/m2 BKN
11:19 48.9 °F 37.3 °F 30.40 in WNW 2.3 mph 2.3 mph 64% 0.00 in WeatherDisplay:10.37 W/m2 BKN
11:24 49.0 °F 38.1 °F 30.40 in NW 1.2 mph 1.2 mph 66% 0.00 in WeatherDisplay:10.37 W/m2 BKN
11:29 49.4 °F 38.9 °F 30.40 in West 3.1 mph 3.1 mph 67% 0.00 in WeatherDisplay:10.37 W/m2 BKN
11:34 49.4 °F 38.1 °F 30.40 in WSW 2.3 mph 2.3 mph 65% 0.00 in WeatherDisplay:10.37 W/m2 BKN
11:39 49.7 °F 38.4 °F 30.40 in WNW 1.0 mph   65% 0.00 in WeatherDisplay:10.37 W/m2 BKN
11:44 49.9 °F 39.4 °F 30.40 in WNW 2.3 mph   67% 0.00 in WeatherDisplay:10.37 W/m2 BKN
11:49 50.3 °F 38.2 °F 30.40 in WNW 3.5 mph 3.5 mph 63% 0.00 in WeatherDisplay:10.37 W/m2 BKN
11:54 49.8 °F 38.5 °F 30.40 in NW 2.3 mph 2.3 mph 65% 0.00 in WeatherDisplay:10.37 W/m2 BKN
11:59 50.1 °F 38.8 °F 30.40 in West 1.2 mph   65% 0.00 in WeatherDisplay:10.37 W/m2 BKN
12:05 50.5 °F 38.8 °F 30.38 in WNW 2.3 mph 2.3 mph 64% 0.00 in WeatherDisplay:10.37 W/m2 BKN
12:10 50.5 °F 39.2 °F 30.38 in WNW 2.3 mph 2.3 mph 65% 0.00 in WeatherDisplay:10.37 W/m2 BKN
12:15 50.5 °F 38.8 °F 30.38 in Calm   1.0 mph 64% 0.00 in WeatherDisplay:10.37 W/m2 BKN
12:20 51.0 °F 39.6 °F 30.38 in Calm   2.0 mph 65% 0.00 in WeatherDisplay:10.37 W/m2 BKN
12:25 51.2 °F 39.4 °F 30.38 in WNW 1.0 mph 2.0 mph 64% 0.00 in WeatherDisplay:10.37 W/m2 BKN
12:30 51.3 °F 38.7 °F 30.38 in WNW 1.0 mph 5.0 mph 62% 0.00 in WeatherDisplay:10.37 W/m2 BKN
12:35 51.4 °F 39.6 °F 30.38 in Calm   3.0 mph 64% 0.00 in WeatherDisplay:10.37 W/m2 BKN
12:40 52.1 °F 40.2 °F 30.38 in Calm   2.0 mph 64% 0.00 in WeatherDisplay:10.37 W/m2 BKN
12:45 52.5 °F 39.8 °F 30.38 in WNW 1.0 mph 5.0 mph 62% 0.00 in WeatherDisplay:10.37 W/m2 BKN
12:50 52.7 °F 40.0 °F 30.38 in WNW 1.0 mph 3.0 mph 62% 0.00 in WeatherDisplay:10.37 W/m2 BKN
12:55 52.8 °F 39.7 °F 30.38 in Calm   3.0 mph 61% 0.00 in WeatherDisplay:10.37 W/m2 BKN
13:00 53.2 °F 40.5 °F 30.38 in WNW 1.0 mph 3.0 mph 62% 0.00 in WeatherDisplay:10.37 W/m2 BKN
13:05 53.7 °F 39.7 °F 30.35 in WNW 2.0 mph 5.0 mph 59% 0.00 in WeatherDisplay:10.37 W/m2 BKN
13:10 53.6 °F 39.6 °F 30.35 in WNW 1.0 mph 5.0 mph 59% 0.00 in WeatherDisplay:10.37 W/m2 BKN
13:15 53.7 °F 39.7 °F 30.35 in WNW 2.0 mph 5.0 mph 59% 0.00 in WeatherDisplay:10.37 W/m2 BKN
13:20 53.4 °F 39.9 °F 30.35 in Calm   3.0 mph 60% 0.00 in WeatherDisplay:10.37 W/m2 BKN
13:25 53.6 °F 40.5 °F 30.35 in WNW 1.0 mph 6.0 mph 61% 0.00 in WeatherDisplay:10.37 W/m2 BKN
13:30 53.2 °F 39.7 °F 30.35 in Calm   3.0 mph 60% 0.00 in WeatherDisplay:10.37 W/m2 BKN
13:35 53.0 °F 39.5 °F 30.34 in WNW 2.3 mph 2.3 mph 60% 0.00 in WeatherDisplay:10.37 W/m2 OVC
13:40 52.9 °F 40.2 °F 30.34 in WNW 1.2 mph 1.2 mph 62% 0.00 in WeatherDisplay:10.37 W/m2 OVC
13:45 52.9 °F 40.2 °F 30.34 in West 2.3 mph 2.3 mph 62% 0.00 in WeatherDisplay:10.37 W/m2 OVC
13:50 52.6 °F 39.5 °F 30.34 in NW 2.0 mph 2.0 mph 61% 0.00 in WeatherDisplay:10.37 W/m2 OVC
13:55 52.3 °F 39.7 °F 30.34 in Calm     62% 0.00 in WeatherDisplay:10.37 W/m2 OVC
14:00 52.2 °F 39.6 °F 30.34 in West 2.3 mph 2.3 mph 62% 0.00 in WeatherDisplay:10.37 W/m2 OVC
14:05 52.2 °F 39.6 °F 30.33 in WSW 4.6 mph 4.6 mph 62% 0.00 in WeatherDisplay:10.37 W/m2 OVC
14:10 52.0 °F 39.0 °F 30.33 in NW 3.5 mph 3.5 mph 61% 0.00 in WeatherDisplay:10.37 W/m2 OVC
14:15 51.8 °F 39.2 °F 30.33 in WNW 1.0 mph 1.0 mph 62% 0.00 in WeatherDisplay:10.37 W/m2 OVC
14:20 51.8 °F 39.6 °F 30.33 in West 2.3 mph 2.3 mph 63% 0.00 in WeatherDisplay:10.37 W/m2 OVC
14:21 51.8 °F 39.6 °F 30.33 in WNW 1.2 mph 1.2 mph 63% 0.00 in WeatherDisplay:10.37 W/m2 OVC
14:26 51.9 °F 39.7 °F 30.33 in West 2.0 mph 2.0 mph 63% 0.00 in WeatherDisplay:10.37 W/m2 OVC
14:31 52.0 °F 40.2 °F 30.33 in West 1.2 mph 1.2 mph 64% 0.00 in WeatherDisplay:10.37 W/m2 OVC
14:36 52.2 °F 39.6 °F 30.33 in West 3.5 mph 3.5 mph 62% 0.00 in WeatherDisplay:10.37 W/m2 OVC
14:41 52.1 °F 39.1 °F 30.33 in WNW 1.2 mph 1.2 mph 61% 0.00 in WeatherDisplay:10.37 W/m2 OVC
14:46 51.9 °F 39.7 °F 30.33 in West 1.2 mph 1.2 mph 63% 0.00 in WeatherDisplay:10.37 W/m2 OVC
14:51 51.8 °F 39.6 °F 30.33 in WNW 1.2 mph 1.2 mph 63% 0.00 in WeatherDisplay:10.37 W/m2 OVC
14:56 51.8 °F 40.0 °F 30.33 in Calm   0.1 mph 64% 0.00 in WeatherDisplay:10.37 W/m2 OVC
15:01 51.9 °F 39.7 °F 30.32 in West 2.3 mph 2.3 mph 63% 0.00 in WeatherDisplay:10.37 W/m2 OVC
15:06 51.9 °F 40.5 °F 30.32 in Calm     65% 0.00 in WeatherDisplay:10.37 W/m2 OVC
15:12 52.0 °F 39.8 °F 30.32 in WNW 2.3 mph 2.3 mph 63% 0.00 in WeatherDisplay:10.37 W/m2 OVC
15:17 51.9 °F 40.1 °F 30.32 in NW 2.0 mph 2.0 mph 64% 0.00 in WeatherDisplay:10.37 W/m2 OVC
15:22 51.7 °F 39.9 °F 30.32 in Calm     64% 0.00 in WeatherDisplay:10.37 W/m2 OVC
15:27 51.7 °F 39.9 °F 30.32 in NW 1.2 mph 1.2 mph 64% 0.00 in WeatherDisplay:10.37 W/m2 OVC
15:30 51.6 °F 39.8 °F 30.32 in WNW 1.2 mph 1.2 mph 64% 0.00 in WeatherDisplay:10.37 W/m2 OVC
15:35 51.4 °F 39.6 °F 30.32 in NW 1.2 mph 1.2 mph 64% 0.00 in WeatherDisplay:10.37 W/m2 OVC
15:40 51.3 °F 39.5 °F 30.32 in WNW 1.2 mph 1.2 mph 64% 0.00 in WeatherDisplay:10.37 W/m2 OVC
15:45 51.2 °F 39.4 °F 30.32 in Calm     64% 0.00 in WeatherDisplay:10.37 W/m2 OVC
15:48 51.1 °F 39.3 °F 30.32 in WNW 1.2 mph 1.2 mph 64% 0.00 in WeatherDisplay:10.37 W/m2 OVC
15:53 51.0 °F 39.2 °F 30.32 in West 2.3 mph 2.3 mph 64% 0.00 in WeatherDisplay:10.37 W/m2 OVC
15:58 50.9 °F 38.7 °F 30.32 in WSW 4.1 mph 4.1 mph 63% 0.00 in WeatherDisplay:10.37 W/m2 OVC
16:03 50.7 °F 39.4 °F 30.32 in West 1.2 mph 1.2 mph 65% 0.00 in WeatherDisplay:10.37 W/m2 OVC
16:08 50.6 °F 38.5 °F 30.32 in West 1.2 mph 1.2 mph 63% 0.00 in WeatherDisplay:10.37 W/m2 OVC
16:13 50.6 °F 38.5 °F 30.32 in WNW 4.6 mph 4.6 mph 63% 0.00 in WeatherDisplay:10.37 W/m2 OVC
16:18 50.4 °F 38.7 °F 30.32 in WNW 1.2 mph 1.2 mph 64% 0.00 in WeatherDisplay:10.37 W/m2 OVC
16:23 50.4 °F 39.1 °F 30.32 in Calm     65% 0.00 in WeatherDisplay:10.37 W/m2 OVC
16:28 50.3 °F 38.2 °F 30.32 in SW 1.2 mph   63% 0.00 in WeatherDisplay:10.37 W/m2 OVC
16:33 50.2 °F 38.1 °F 30.32 in West 1.2 mph 1.2 mph 63% 0.00 in WeatherDisplay:10.37 W/m2 OVC
16:39 50.1 °F 38.4 °F 30.32 in West 1.2 mph 1.2 mph 64% 0.00 in WeatherDisplay:10.37 W/m2 OVC
16:44 50.1 °F 38.4 °F 30.32 in WNW 1.2 mph   64% 0.00 in WeatherDisplay:10.37 W/m2 OVC
16:49 50.0 °F 38.3 °F 30.32 in West 2.3 mph   64% 0.00 in WeatherDisplay:10.37 W/m2 OVC
16:54 49.9 °F 38.6 °F 30.32 in West 4.6 mph   65% 0.00 in WeatherDisplay:10.37 W/m2 OVC
16:59 49.9 °F 38.6 °F 30.32 in WNW 1.2 mph   65% 0.00 in WeatherDisplay:10.37 W/m2 OVC
17:00 49.9 °F 38.6 °F 30.32 in Calm     65% 0.00 in WeatherDisplay:10.37 W/m2 OVC
17:05 49.8 °F 38.5 °F 30.32 in West 1.2 mph 1.2 mph 65% 0.00 in WeatherDisplay:10.37 W/m2 OVC
17:10 49.7 °F 38.8 °F 30.32 in SSW 1.2 mph 1.2 mph 66% 0.00 in WeatherDisplay:10.37 W/m2 OVC
17:15 49.6 °F 37.9 °F 30.32 in WNW 1.2 mph   64% 0.00 in WeatherDisplay:10.37 W/m2 OVC
17:20 49.5 °F 38.2 °F 30.32 in West 1.2 mph   65% 0.00 in WeatherDisplay:10.37 W/m2 OVC
17:25 49.4 °F 38.1 °F 30.32 in West 1.2 mph   65% 0.00 in WeatherDisplay:10.37 W/m2 OVC
17:30 49.3 °F 38.0 °F 30.32 in West 1.2 mph 1.2 mph 65% 0.00 in WeatherDisplay:10.37 W/m2 OVC
17:35 49.2 °F 37.9 °F 30.32 in West 1.2 mph   65% 0.00 in WeatherDisplay:10.37 W/m2 OVC
17:45 48.9 °F 38.0 °F 30.32 in Calm     66% 0.00 in WeatherDisplay:10.37 W/m2 OVC
17:50 48.9 °F 38.0 °F 30.32 in Calm     66% 0.00 in WeatherDisplay:10.37 W/m2 OVC
17:55 48.7 °F 37.8 °F 30.32 in West 1.2 mph 1.2 mph 66% 0.00 in WeatherDisplay:10.37 W/m2 OVC
18:00 48.7 °F 37.8 °F 30.32 in WNW 1.2 mph 1.2 mph 66% 0.00 in WeatherDisplay:10.37 W/m2 OVC
18:06 48.6 °F 37.7 °F 30.33 in Calm   0.2 mph 66% 0.00 in WeatherDisplay:10.37 W/m2 OVC
18:11 48.5 °F 37.7 °F 30.33 in West 1.2 mph 1.2 mph 66% 0.00 in WeatherDisplay:10.37 W/m2 OVC
18:16 48.5 °F 38.0 °F 30.33 in WNW 1.2 mph 1.2 mph 67% 0.00 in WeatherDisplay:10.37 W/m2 OVC
18:21 48.4 °F 37.6 °F 30.33 in Calm     66% 0.00 in WeatherDisplay:10.37 W/m2 OVC
18:26 48.3 °F 37.5 °F 30.33 in WNW 2.0 mph 2.0 mph 66% 0.00 in WeatherDisplay:10.37 W/m2 OVC
18:31 48.2 °F 37.4 °F 30.33 in WNW 2.0 mph 2.0 mph 66% 0.00 in WeatherDisplay:10.37 W/m2 OVC
18:36 48.1 °F 37.3 °F 30.33 in West 1.2 mph 1.2 mph 66% 0.00 in WeatherDisplay:10.37 W/m2 OVC
18:41 48.0 °F 37.2 °F 30.33 in Calm     66% 0.00 in WeatherDisplay:10.37 W/m2 OVC
18:46 48.0 °F 36.8 °F 30.33 in West 1.2 mph 1.2 mph 65% 0.00 in WeatherDisplay:10.37 W/m2 OVC
18:51 47.9 °F 37.1 °F 30.33 in West 2.0 mph 2.0 mph 66% 0.00 in WeatherDisplay:10.37 W/m2 OVC
18:56 47.9 °F 37.1 °F 30.33 in WNW 1.2 mph   66% 0.00 in WeatherDisplay:10.37 W/m2 OVC
19:01 47.8 °F 37.0 °F 30.34 in WNW 2.3 mph 2.3 mph 66% 0.00 in WeatherDisplay:10.37 W/m2 OVC
19:06 47.7 °F 37.3 °F 30.34 in West 1.0 mph 1.0 mph 67% 0.00 in WeatherDisplay:10.37 W/m2 OVC
19:11 47.7 °F 37.3 °F 30.34 in West 1.2 mph 1.2 mph 67% 0.00 in WeatherDisplay:10.37 W/m2 OVC
19:16 47.6 °F 37.2 °F 30.34 in Calm     67% 0.00 in WeatherDisplay:10.37 W/m2 OVC
19:21 47.6 °F 37.2 °F 30.34 in WNW 1.2 mph 1.2 mph 67% 0.00 in WeatherDisplay:10.37 W/m2 OVC
19:26 47.5 °F 37.1 °F 30.34 in Calm     67% 0.00 in WeatherDisplay:10.37 W/m2 OVC
19:31 47.5 °F 37.1 °F 30.34 in Calm   0.3 mph 67% 0.00 in WeatherDisplay:10.37 W/m2 OVC
19:37 47.4 °F 37.0 °F 30.34 in WNW 1.2 mph   67% 0.00 in WeatherDisplay:10.37 W/m2 OVC
19:42 47.4 °F 37.0 °F 30.34 in West 3.5 mph   67% 0.00 in WeatherDisplay:10.37 W/m2 OVC
19:47 47.3 °F 36.5 °F 30.34 in West 3.5 mph 3.5 mph 66% 0.00 in WeatherDisplay:10.37 W/m2 OVC
19:52 47.3 °F 36.5 °F 30.34 in West 2.3 mph 2.3 mph 66% 0.00 in WeatherDisplay:10.37 W/m2 OVC
19:57 47.2 °F 36.8 °F 30.34 in WSW 1.2 mph 1.2 mph 67% 0.00 in WeatherDisplay:10.37 W/m2 OVC
20:02 47.2 °F 36.8 °F 30.36 in West 1.0 mph 1.0 mph 67% 0.00 in WeatherDisplay:10.37 W/m2 OVC
20:07 47.1 °F 36.7 °F 30.36 in WNW 2.3 mph 2.3 mph 67% 0.00 in WeatherDisplay:10.37 W/m2 OVC
20:12 47.1 °F 37.1 °F 30.36 in West 1.2 mph 1.2 mph 68% 0.00 in WeatherDisplay:10.37 W/m2 OVC
20:17 47.0 °F 36.6 °F 30.36 in West 1.2 mph 1.2 mph 67% 0.00 in WeatherDisplay:10.37 W/m2 OVC
20:22 47.0 °F 37.0 °F 30.36 in West 1.2 mph 1.2 mph 68% 0.00 in WeatherDisplay:10.37 W/m2 OVC
20:27 47.0 °F 37.0 °F 30.36 in WNW 1.2 mph 1.2 mph 68% 0.00 in WeatherDisplay:10.37 W/m2 OVC
20:32 47.0 °F 37.0 °F 30.36 in West 1.2 mph 1.2 mph 68% 0.00 in WeatherDisplay:10.37 W/m2 OVC
20:37 46.9 °F 37.3 °F 30.36 in NW 1.2 mph 1.2 mph 69% 0.00 in WeatherDisplay:10.37 W/m2 OVC
20:43 46.9 °F 36.5 °F 30.36 in WNW 2.3 mph 2.3 mph 67% 0.00 in WeatherDisplay:10.37 W/m2 OVC
20:48 46.8 °F 36.4 °F 30.36 in WNW 1.2 mph 1.2 mph 67% 0.00 in WeatherDisplay:10.37 W/m2 OVC
20:53 46.7 °F 35.9 °F 30.36 in WNW 3.5 mph 3.5 mph 66% 0.00 in WeatherDisplay:10.37 W/m2 OVC
20:58 46.7 °F 35.9 °F 30.36 in WNW 1.2 mph 1.2 mph 66% 0.00 in WeatherDisplay:10.37 W/m2 OVC
21:03 46.6 °F 35.8 °F 30.37 in Calm     66% 0.00 in WeatherDisplay:10.37 W/m2 OVC
21:08 46.6 °F 36.2 °F 30.37 in WNW 2.0 mph 2.0 mph 67% 0.00 in WeatherDisplay:10.37 W/m2 OVC
21:13 46.5 °F 36.1 °F 30.37 in West 2.0 mph 2.0 mph 67% 0.00 in WeatherDisplay:10.37 W/m2 OVC
21:18 46.5 °F 36.5 °F 30.37 in Calm     68% 0.00 in WeatherDisplay:10.37 W/m2 OVC
21:23 46.4 °F 35.7 °F 30.37 in WNW 3.5 mph 3.5 mph 66% 0.00 in WeatherDisplay:10.37 W/m2 OVC
21:28 46.4 °F 36.4 °F 30.37 in West 2.0 mph   68% 0.00 in WeatherDisplay:10.37 W/m2 OVC
21:33 46.3 °F 35.6 °F 30.37 in NW 2.3 mph 2.3 mph 66% 0.00 in WeatherDisplay:10.37 W/m2 OVC
21:38 46.3 °F 35.9 °F 30.37 in West 1.2 mph 1.2 mph 67% 0.00 in WeatherDisplay:10.37 W/m2 OVC
21:43 46.3 °F 35.6 °F 30.37 in Calm     66% 0.00 in WeatherDisplay:10.37 W/m2 OVC
21:48 46.2 °F 35.5 °F 30.37 in West 1.2 mph 1.2 mph 66% 0.00 in WeatherDisplay:10.37 W/m2 OVC
21:53 46.2 °F 35.5 °F 30.37 in West 1.2 mph 1.2 mph 66% 0.00 in WeatherDisplay:10.37 W/m2 OVC
21:56 46.2 °F 35.5 °F 30.37 in NW 1.2 mph 1.2 mph 66% 0.00 in WeatherDisplay:10.37 W/m2 OVC
22:02 46.1 °F 35.4 °F 30.39 in West 1.2 mph 1.2 mph 66% 0.00 in WeatherDisplay:10.37 W/m2 OVC
22:07 46.1 °F 35.4 °F 30.39 in WNW 1.2 mph 1.2 mph 66% 0.00 in WeatherDisplay:10.37 W/m2 OVC
22:13 46.1 °F 35.4 °F 30.39 in West 4.6 mph 4.6 mph 66% 0.00 in WeatherDisplay:10.37 W/m2 OVC
22:18 46.0 °F 35.3 °F 30.39 in West 1.2 mph 1.2 mph 66% 0.00 in WeatherDisplay:10.37 W/m2 OVC
22:22 46.0 °F 36.0 °F 30.39 in West 1.2 mph 1.2 mph 68% 0.00 in WeatherDisplay:10.37 W/m2 OVC
22:23 46.0 °F 35.7 °F 30.39 in WNW 2.0 mph 2.0 mph 67% 0.00 in WeatherDisplay:10.37 W/m2 OVC
22:25 46.0 °F 35.7 °F 30.39 in Calm   2.0 mph 67% 0.00 in WeatherDisplay:10.37 W/m2 OVC
22:30 46.0 °F 35.7 °F 30.39 in WNW 1.0 mph   67% 0.00 in WeatherDisplay:10.37 W/m2 OVC
22:35 46.0 °F 36.0 °F 30.39 in West 1.2 mph 1.2 mph 68% 0.00 in WeatherDisplay:10.37 W/m2 OVC
22:41 46.0 °F 36.0 °F 30.39 in WNW 2.3 mph 2.3 mph 68% 0.00 in WeatherDisplay:10.37 W/m2 OVC
22:46 45.9 °F 35.6 °F 30.39 in WNW 3.5 mph 3.5 mph 67% 0.00 in WeatherDisplay:10.37 W/m2 OVC
22:51 46.0 °F 35.7 °F 30.39 in West 2.3 mph 2.3 mph 67% 0.00 in WeatherDisplay:10.37 W/m2 OVC
22:56 45.9 °F 35.6 °F 30.39 in WNW 1.2 mph   67% 0.00 in WeatherDisplay:10.37 W/m2 OVC
23:06 45.9 °F 35.6 °F 30.37 in SSW 1.2 mph 1.2 mph 67% 0.00 in WeatherDisplay:10.37 W/m2 OVC
23:11 45.9 °F 35.6 °F 30.37 in West 3.5 mph 3.5 mph 67% 0.00 in WeatherDisplay:10.37 W/m2 OVC
23:16 45.9 °F 35.6 °F 30.37 in West 1.0 mph   67% 0.00 in WeatherDisplay:10.37 W/m2 OVC
23:21 45.9 °F 35.6 °F 30.37 in WNW 2.3 mph 2.3 mph 67% 0.00 in WeatherDisplay:10.37 W/m2 OVC
23:26 45.9 °F 35.6 °F 30.37 in West 3.1 mph 3.1 mph 67% 0.00 in WeatherDisplay:10.37 W/m2 OVC
23:31 45.8 °F 35.5 °F 30.37 in West 1.2 mph   67% 0.00 in WeatherDisplay:10.37 W/m2 OVC
23:35 45.9 °F 35.6 °F 30.37 in WNW 1.2 mph   67% 0.00 in WeatherDisplay:10.37 W/m2 OVC
23:40 45.9 °F 35.6 °F 30.37 in West 1.2 mph   67% 0.00 in WeatherDisplay:10.37 W/m2 OVC
23:45 45.9 °F 35.6 °F 30.37 in West 1.2 mph 1.2 mph 67% 0.00 in WeatherDisplay:10.37 W/m2 OVC
23:50 45.8 °F 35.5 °F 30.37 in WNW 1.2 mph 1.2 mph 67% 0.00 in WeatherDisplay:10.37 W/m2 OVC
23:55 45.8 °F 35.8 °F 30.37 in West 2.3 mph 2.3 mph 68% 0.00 in WeatherDisplay:10.37 W/m2 OVC
Piedmont Bend
Compliments of Weather Underground - 4 mb